Time;durP1;ratioP1;P1;durP2;ratioP2;P2;SDS_P1;SDS_P2;PMS_P1;PMS_P2;Temp;Humidity;BMP_temperature;BMP_pressure;BME280_temperature;BME280_humidity;BME280_pressure;Samples;Min_cycle;Max_cycle;Signal;HPM_P1;HPM_P2
2021/06/12 00:01:15;;;;;;;;;2.67;2.00;;;;;22.53;52.23;101847.75;6248161;22;45342;-91
2021/06/12 00:03:40;;;;;;;;;2.00;2.00;;;;;22.45;52.68;101842.94;6278795;22;45748;-91
2021/06/12 00:06:06;;;;;;;;;2.00;2.00;;;;;22.37;52.41;101842.63;6276961;22;45790;-91
2021/06/12 00:08:34;;;;;;;;;2.00;2.00;;;;;22.33;52.76;101849.09;6250813;22;45495;-90
2021/06/12 00:11:03;;;;;;;;;1.67;1.67;;;;;22.25;52.58;101844.31;6277293;22;45397;-91
2021/06/12 00:13:29;;;;;;;;;4.00;1.50;;;;;22.17;52.77;101839.53;6278329;22;45272;-91
2021/06/12 00:15:55;;;;;;;;;2.50;2.50;;;;;22.14;52.88;101845.06;6276501;22;45257;-91
2021/06/12 00:18:21;;;;;;;;;3.00;3.00;;;;;22.05;53.00;101845.66;6276257;22;45262;-91
2021/06/12 00:20:47;;;;;;;;;1.50;1.50;;;;;22.00;53.31;101852.13;6276597;22;45424;-91
2021/06/12 00:23:13;;;;;;;;;1.67;1.67;;;;;22.00;53.39;101865.38;6249200;22;47271;-90
2021/06/12 00:25:39;;;;;;;;;2.00;2.00;;;;;21.96;53.57;101865.69;6276633;22;45395;-90
2021/06/12 00:28:06;;;;;;;;;1.00;1.00;;;;;21.95;53.76;101866.66;6276331;22;45560;-91
2021/06/12 00:30:31;;;;;;;;;1.00;1.00;;;;;21.95;53.20;101866.66;6277199;22;45228;-91
2021/06/12 00:32:57;;;;;;;;;1.00;1.00;;;;;21.94;53.46;101855.19;6275786;22;47414;-90
2021/06/12 00:35:23;;;;;;;;;2.25;1.75;;;;;21.91;53.30;101855.41;6276631;22;45928;-91
2021/06/12 00:37:49;;;;;;;;;1.00;1.00;;;;;21.93;53.43;101861.44;6276253;22;45243;-91
2021/06/12 00:40:16;;;;;;;;;1.00;1.00;;;;;21.96;53.17;101871.00;6251095;22;45574;-91
2021/06/12 00:42:42;;;;;;;;;2.00;1.00;;;;;21.97;53.36;101865.59;6277191;22;46691;-91
2021/06/12 00:45:13;;;;;;;;;3.67;2.00;;;;;21.94;53.70;101871.09;6276039;22;45389;-91
2021/06/12 00:47:38;;;;;;;;;1.33;1.33;;;;;21.95;53.65;101875.47;6275929;22;45306;-88
2021/06/12 00:50:06;;;;;;;;;1.67;1.33;;;;;21.96;53.92;101878.94;6276444;22;45372;-91
2021/06/12 00:52:32;;;;;;;;;3.00;3.00;;;;;21.98;53.89;101869.94;6250581;22;47104;-90
2021/06/12 00:54:58;;;;;;;;;1.33;1.33;;;;;21.97;53.58;101878.84;6249896;22;45502;-91
2021/06/12 00:57:24;;;;;;;;;1.00;1.00;;;;;21.97;53.75;101878.84;6275771;22;45293;-90
2021/06/12 00:59:49;;;;;;;;;2.00;2.00;;;;;22.00;54.20;101872.50;6276160;22;45376;-91
2021/06/12 01:02:15;;;;;;;;;2.00;2.00;;;;;22.03;54.21;101872.28;6250174;22;47761;-90
2021/06/12 01:04:40;;;;;;;;;1.33;1.00;;;;;22.03;53.66;101870.47;6276411;22;45327;-90
2021/06/12 01:07:06;;;;;;;;;2.00;2.00;;;;;22.03;54.23;101867.84;6258782;22;45444;-91
2021/06/12 01:09:34;;;;;;;;;2.00;2.00;;;;;22.03;54.04;101869.63;6216845;22;45282;-91
2021/06/12 01:12:15;;;;;;;;;2.33;2.00;;;;;22.03;53.85;101870.47;6215915;22;45683;-90
2021/06/12 01:14:43;;;;;;;;;2.00;1.00;;;;;22.00;53.81;101862.72;6238113;22;45315;-91
2021/06/12 01:17:21;;;;;;;;;2.00;2.00;;;;;21.92;53.82;101862.41;6212814;22;45371;-90
2021/06/12 01:20:20;;;;;;;;;2.00;2.00;;;;;21.88;53.86;101859.13;6238223;22;45394;-91
2021/06/12 01:22:46;;;;;;;;;2.00;2.00;;;;;21.83;53.82;101866.53;6238033;22;47364;-91
2021/06/12 01:25:33;;;;;;;;;1.67;1.67;;;;;21.71;54.19;101852.28;6214830;22;45352;-91
2021/06/12 01:27:59;;;;;;;;;1.33;1.33;;;;;21.67;54.40;101853.41;6212572;22;45358;-91
2021/06/12 01:30:45;;;;;;;;;1.67;1.67;;;;;21.58;54.19;101849.53;6214585;22;45338;-90
2021/06/12 01:33:13;;;;;;;;;2.00;2.00;;;;;21.53;54.70;101856.97;6238444;22;47046;-91
2021/06/12 01:35:50;;;;;;;;;2.00;1.00;;;;;21.47;54.29;101858.19;6238012;22;45345;-90
2021/06/12 01:38:38;;;;;;;;;1.33;1.33;;;;;21.38;54.82;101856.13;6238570;22;45394;-90
2021/06/12 01:41:09;;;;;;;;;2.00;2.00;;;;;21.34;54.87;101858.13;6238087;22;45245;-91
2021/06/12 01:43:37;;;;;;;;;3.00;3.00;;;;;21.30;54.62;101858.44;6237777;22;46965;-90
2021/06/12 01:46:06;;;;;;;;;2.00;2.00;;;;;21.25;54.89;101849.94;6238123;22;45967;-91
2021/06/12 01:48:32;;;;;;;;;2.00;2.00;;;;;21.13;55.20;101844.47;6238399;22;45337;-90
2021/06/12 01:50:59;;;;;;;;;1.00;1.00;;;;;21.12;55.08;101857.81;6214526;22;45514;-90
2021/06/12 01:53:30;;;;;;;;;1.00;1.00;;;;;21.06;55.26;101853.78;6213969;22;45301;-91
2021/06/12 01:56:00;;;;;;;;;1.67;1.00;;;;;21.02;55.33;101860.19;6214166;22;45357;-91
2021/06/12 01:58:26;;;;;;;;;1.00;1.00;;;;;20.99;55.72;101855.94;6212472;22;45457;-91
2021/06/12 02:00:55;;;;;;;;;4.00;2.00;;;;;20.93;55.84;101843.94;6238521;22;45502;-90
2021/06/12 02:03:22;;;;;;;;;2.00;2.00;;;;;20.91;55.69;101860.84;6213969;22;45685;-91
2021/06/12 02:05:49;;;;;;;;;4.67;3.00;;;;;20.85;56.03;101862.09;6237949;22;45397;-90
2021/06/12 02:08:16;;;;;;;;;2.00;1.00;;;;;20.82;56.20;101860.47;6268143;22;45627;-91
2021/06/12 02:10:42;;;;;;;;;2.00;2.00;;;;;20.78;56.00;101864.22;6274513;22;45231;-91
2021/06/12 02:13:09;;;;;;;;;2.00;2.00;;;;;20.74;55.93;101857.41;6273618;22;47506;-91
2021/06/12 02:15:36;;;;;;;;;1.67;1.67;;;;;20.71;56.21;101868.22;6274106;22;45263;-90
2021/06/12 02:18:04;;;;;;;;;1.00;1.00;;;;;20.66;56.08;101857.06;6248605;22;45399;-90
2021/06/12 02:20:32;;;;;;;;;2.00;2.00;;;;;20.61;56.29;101859.13;6274137;22;45554;-91
2021/06/12 02:23:01;;;;;;;;;2.00;2.00;;;;;20.62;56.03;101864.34;6247215;22;46816;-90
2021/06/12 02:25:27;;;;;;;;;2.00;2.00;;;;;20.61;56.70;101867.06;6273035;22;45438;-91
2021/06/12 02:27:58;;;;;;;;;2.00;2.00;;;;;20.55;56.49;101873.59;6248084;22;45298;-91
2021/06/12 02:30:28;;;;;;;;;2.00;2.00;;;;;20.53;56.52;101864.88;6276373;22;45409;-91
2021/06/12 02:33:01;;;;;;;;;4.67;3.00;;;;;20.48;56.64;101867.81;6275897;22;45540;-91
2021/06/12 02:35:26;;;;;;;;;2.00;2.00;;;;;20.42;56.98;101871.66;6273382;22;45384;-90
2021/06/12 02:37:53;;;;;;;;;4.67;2.00;;;;;20.45;56.79;101881.19;6273804;22;45470;-91
2021/06/12 02:40:19;;;;;;;;;2.33;2.00;;;;;20.41;56.81;101893.75;6274388;22;45440;-90
2021/06/12 02:42:44;;;;;;;;;3.33;2.00;;;;;20.36;57.09;101885.25;6275025;22;46047;-91
2021/06/12 02:45:11;;;;;;;;;1.33;1.33;;;;;20.37;56.98;101886.94;6273626;22;45464;-90
2021/06/12 02:47:46;;;;;;;;;3.67;2.00;;;;;20.33;56.95;101884.59;6273819;22;45506;-90
2021/06/12 02:50:13;;;;;;;;;1.00;1.00;;;;;20.32;56.77;101882.88;6248478;22;45220;-91
2021/06/12 02:52:40;;;;;;;;;1.67;1.67;;;;;20.30;56.77;101882.97;6273841;22;48272;-90
2021/06/12 02:55:08;;;;;;;;;2.00;1.67;;;;;20.28;56.89;101879.59;6275517;22;45451;-91
2021/06/12 02:57:47;;;;;;;;;2.67;1.67;;;;;20.25;56.69;101882.41;6273626;22;45333;-90
2021/06/12 03:00:14;;;;;;;;;1.67;1.00;;;;;20.18;56.49;101860.75;6274055;22;45251;-91
2021/06/12 03:02:42;;;;;;;;;1.00;1.00;;;;;20.21;56.69;101880.88;6275434;22;45331;-91
2021/06/12 03:05:21;;;;;;;;;2.00;1.00;;;;;20.17;56.70;101872.28;6247541;22;45425;-90
2021/06/12 03:07:53;;;;;;;;;1.00;1.00;;;;;20.16;56.44;101871.44;6272935;22;45468;-91
2021/06/12 03:10:20;;;;;;;;;1.00;1.00;;;;;20.15;56.48;101872.34;6248146;22;45398;-91
2021/06/12 03:12:47;;;;;;;;;1.00;1.00;;;;;20.10;56.11;101868.31;6247610;22;46629;-91
2021/06/12 03:15:15;;;;;;;;;1.33;1.33;;;;;20.08;56.16;101859.63;6274023;22;45284;-91
2021/06/12 03:17:43;;;;;;;;;0.33;0.33;;;;;20.08;56.11;101865.75;6247530;22;45273;-91
2021/06/12 03:20:12;;;;;;;;;1.00;0.67;;;;;20.06;55.82;101859.72;6275833;22;45294;-91
2021/06/12 03:22:38;;;;;;;;;0.33;0.33;;;;;20.03;55.93;101863.38;6247680;22;47402;-90
2021/06/12 03:25:07;;;;;;;;;1.00;1.00;;;;;19.97;55.90;101854.94;6273722;22;45744;-90
2021/06/12 03:27:33;;;;;;;;;1.00;1.00;;;;;19.94;56.00;101855.94;6275630;22;45400;-90
2021/06/12 03:29:59;;;;;;;;;1.00;1.00;;;;;19.92;56.22;101864.91;6275090;22;45534;-90
2021/06/12 03:32:26;;;;;;;;;1.00;1.00;;;;;19.90;56.33;101871.13;6247052;22;47325;-90
2021/06/12 03:34:52;;;;;;;;;0.33;0.33;;;;;19.83;56.38;101864.50;6273452;22;45275;-91
2021/06/12 03:37:18;;;;;;;;;0.67;0.67;;;;;19.85;56.25;101874.97;6272299;22;45209;-90
2021/06/12 03:39:43;;;;;;;;;1.00;1.00;;;;;19.82;56.51;101876.00;6247888;22;45430;-90
2021/06/12 03:42:10;;;;;;;;;1.00;1.00;;;;;19.79;56.42;101868.25;6273259;22;48126;-90
2021/06/12 03:44:38;;;;;;;;;0.00;0.00;;;;;19.78;56.36;101874.47;6275489;22;45184;-90
2021/06/12 03:47:06;;;;;;;;;1.00;1.00;;;;;19.73;56.46;101868.59;6275460;22;45306;-90
2021/06/12 03:49:32;;;;;;;;;0.00;0.00;;;;;19.74;56.21;101887.00;6247421;22;45604;-90
2021/06/12 03:51:58;;;;;;;;;1.00;1.00;;;;;19.75;56.17;101885.22;6247550;22;46703;-90
2021/06/12 03:54:24;;;;;;;;;2.00;0.67;;;;;19.72;55.98;101885.41;6273126;22;45092;-90
2021/06/12 03:56:50;;;;;;;;;1.00;1.00;;;;;19.70;55.82;101871.41;6275541;22;45246;-90
2021/06/12 03:59:16;;;;;;;;;1.00;0.00;;;;;19.73;56.03;101876.53;6273629;22;45489;-91
2021/06/12 04:01:42;;;;;;;;;0.00;0.00;;;;;19.72;55.58;101894.16;6273046;22;47024;-90
2021/06/12 04:04:08;;;;;;;;;0.00;0.00;;;;;19.68;55.68;101895.28;6275012;22;45587;-90
2021/06/12 04:06:33;;;;;;;;;0.33;0.33;;;;;19.67;55.96;101896.19;6274604;22;45368;-90
2021/06/12 04:08:59;;;;;;;;;0.00;0.00;;;;;19.68;56.01;101899.72;6273337;22;45388;-91
2021/06/12 04:11:24;;;;;;;;;0.00;0.00;;;;;19.68;55.73;101910.28;6272732;22;47624;-91
2021/06/12 04:13:50;;;;;;;;;0.00;0.00;;;;;19.66;55.79;101910.34;6247189;22;45584;-90
2021/06/12 04:16:15;;;;;;;;;0.00;0.00;;;;;19.64;56.02;101909.59;6247233;22;45433;-90
2021/06/12 04:18:41;;;;;;;;;0.00;0.00;;;;;19.66;55.87;101914.78;6275632;22;45306;-90
2021/06/12 04:21:06;;;;;;;;;0.00;0.00;;;;;19.65;55.97;101911.28;6275505;22;45854;-91
2021/06/12 04:23:32;;;;;;;;;0.00;0.00;;;;;19.63;56.25;101899.97;6272475;22;45255;-91
2021/06/12 04:25:58;;;;;;;;;0.00;0.00;;;;;19.67;55.88;101904.13;6273310;22;45288;-91
2021/06/12 04:28:24;;;;;;;;;2.00;1.00;;;;;19.66;55.85;101899.78;6273134;22;45217;-90
2021/06/12 04:30:54;;;;;;;;;1.67;1.00;;;;;19.68;56.12;101908.50;6246641;22;47083;-91
2021/06/12 04:33:20;;;;;;;;;0.00;0.00;;;;;19.68;56.12;101900.56;6272920;22;45663;-90
2021/06/12 04:35:45;;;;;;;;;0.00;0.00;;;;;19.70;55.99;101908.38;6247726;22;45409;-90
2021/06/12 04:38:14;;;;;;;;;0.00;0.00;;;;;19.70;56.18;101905.75;6273514;22;45599;-90
2021/06/12 04:40:39;;;;;;;;;0.33;0.33;;;;;19.67;56.03;101893.56;6272658;22;47271;-91
2021/06/12 04:43:06;;;;;;;;;0.00;0.00;;;;;19.67;56.09;101896.19;6246535;22;45159;-90
2021/06/12 04:45:32;;;;;;;;;0.00;0.00;;;;;19.70;55.88;101900.47;6273280;22;45290;-91
2021/06/12 04:47:58;;;;;;;;;0.33;0.33;;;;;19.70;56.24;101903.97;6273177;22;45478;-91
2021/06/12 04:50:24;;;;;;;;;0.67;0.00;;;;;19.69;56.25;101901.41;6275914;22;45641;-90
2021/06/12 04:52:50;;;;;;;;;0.00;0.00;;;;;19.71;56.07;101910.06;6248955;22;45462;-90
2021/06/12 04:55:16;;;;;;;;;1.67;1.00;;;;;19.72;55.90;101914.44;6275768;22;45505;-90
2021/06/12 04:57:41;;;;;;;;;1.00;1.00;;;;;19.72;55.94;101917.09;6276935;22;45152;-90
2021/06/12 05:00:12;;;;;;;;;0.67;0.67;;;;;19.72;56.15;101911.81;6248356;22;47075;-89
2021/06/12 05:02:39;;;;;;;;;0.33;0.33;;;;;19.75;56.13;101922.19;6276268;22;45219;-90
2021/06/12 05:05:09;;;;;;;;;1.00;1.00;;;;;19.74;56.03;101915.19;6248379;22;45235;-90
2021/06/12 05:07:35;;;;;;;;;1.00;1.00;;;;;19.77;56.11;101922.97;6224790;22;46463;-91
2021/06/12 05:10:01;;;;;;;;;0.00;0.00;;;;;19.77;56.23;101925.59;6212799;22;46008;-90
2021/06/12 05:12:26;;;;;;;;;1.00;1.00;;;;;19.72;56.43;101915.28;6212572;22;45323;-90
2021/06/12 05:14:55;;;;;;;;;0.00;0.00;;;;;19.73;56.13;101916.13;6237788;22;45386;-90
2021/06/12 05:17:21;;;;;;;;;0.00;0.00;;;;;19.76;56.36;101921.22;6213402;22;45348;-91
2021/06/12 05:19:53;;;;;;;;;0.00;0.00;;;;;19.77;56.38;101922.97;6238381;22;46968;-90
2021/06/12 05:22:23;;;;;;;;;1.00;1.00;;;;;19.76;56.07;101922.09;6237992;22;45795;-90
2021/06/12 05:24:51;;;;;;;;;1.00;1.00;;;;;19.78;56.55;101922.03;6212743;22;45241;-90
2021/06/12 05:27:17;;;;;;;;;1.00;1.00;;;;;19.78;56.09;101924.66;6212324;22;45601;-91
2021/06/12 05:29:42;;;;;;;;;0.00;0.00;;;;;19.75;56.05;101922.19;6214221;22;45389;-90
2021/06/12 05:32:08;;;;;;;;;0.33;0.33;;;;;19.75;56.12;101923.03;6214956;22;45431;-90
2021/06/12 05:34:35;;;;;;;;;1.00;0.67;;;;;19.80;56.06;101930.69;6212797;22;45456;-90
2021/06/12 05:37:01;;;;;;;;;0.67;0.67;;;;;19.80;55.80;101925.41;6212621;22;45140;-90
2021/06/12 05:39:26;;;;;;;;;1.00;1.00;;;;;19.84;56.20;101926.94;6237994;22;47144;-89
2021/06/12 05:41:52;;;;;;;;;0.33;0.33;;;;;19.85;56.43;101923.38;6212207;22;45794;-90
2021/06/12 05:44:17;;;;;;;;;0.00;0.00;;;;;19.88;56.09;101923.19;6214767;22;45467;-90
2021/06/12 05:46:43;;;;;;;;;2.00;2.00;;;;;19.94;56.12;101922.00;6212914;22;45363;-90
2021/06/12 05:49:08;;;;;;;;;1.33;1.00;;;;;19.95;55.75;101896.44;6236956;22;47105;-89
2021/06/12 05:51:34;;;;;;;;;1.67;1.00;;;;;20.00;55.96;101915.56;6212704;22;45406;-91
2021/06/12 05:53:59;;;;;;;;;0.67;0.33;;;;;20.04;55.43;101917.06;6215078;22;45233;-91
2021/06/12 05:56:25;;;;;;;;;1.00;1.00;;;;;20.04;55.59;101914.41;6238686;22;45566;-91
2021/06/12 05:58:50;;;;;;;;;0.67;0.67;;;;;20.09;55.46;101922.09;6237521;22;47245;-91
2021/06/12 06:01:15;;;;;;;;;1.00;1.00;;;;;20.12;55.44;101924.53;6237760;22;45655;-91
2021/06/12 06:03:41;;;;;;;;;1.33;0.00;;;;;20.15;55.52;101924.38;6237951;22;45377;-91
2021/06/12 06:06:07;;;;;;;;;1.00;1.00;;;;;20.21;55.31;101934.59;6215102;22;45309;-91
2021/06/12 06:08:35;;;;;;;;;0.67;0.67;;;;;20.25;55.36;101933.47;6267081;22;47123;-91
2021/06/12 06:11:01;;;;;;;;;1.00;1.00;;;;;20.33;55.13;101940.97;6268782;22;45786;-91
2021/06/12 06:13:38;;;;;;;;;0.00;0.00;;;;;20.38;55.32;101927.47;6244448;22;45183;-92
2021/06/12 06:16:03;;;;;;;;;1.67;1.00;;;;;20.43;55.28;101928.03;6242608;22;45568;-91
2021/06/12 06:18:29;;;;;;;;;1.00;1.00;;;;;20.51;54.88;101932.88;6268679;22;47361;-92
2021/06/12 06:20:59;;;;;;;;;1.00;1.00;;;;;20.55;54.77;101935.25;6268880;22;45309;-91
2021/06/12 06:23:27;;;;;;;;;0.00;0.00;;;;;20.56;54.93;101928.16;6269380;22;45279;-91
2021/06/12 06:25:57;;;;;;;;;0.00;0.00;;;;;20.60;54.58;101926.19;6243404;22;45497;-90
2021/06/12 06:28:23;;;;;;;;;1.00;0.67;;;;;20.68;54.84;101934.50;6242764;22;47381;-90
2021/06/12 06:30:48;;;;;;;;;0.00;0.00;;;;;20.72;54.53;101927.22;6267471;22;45327;-90
2021/06/12 06:33:14;;;;;;;;;0.00;0.00;;;;;20.78;54.42;101932.16;6242988;22;45223;-91
2021/06/12 06:35:39;;;;;;;;;1.00;1.00;;;;;20.83;54.52;101932.75;6243716;22;45390;-90
2021/06/12 06:38:05;;;;;;;;;2.00;0.00;;;;;20.92;54.37;101942.78;6268667;22;46565;-90
2021/06/12 06:40:31;;;;;;;;;1.00;1.00;;;;;21.00;54.13;101946.75;6244275;22;45410;-90
2021/06/12 06:42:56;;;;;;;;;1.00;0.33;;;;;21.06;54.13;101952.50;6242317;22;45329;-90
2021/06/12 06:45:22;;;;;;;;;1.00;1.00;;;;;21.09;53.73;101954.13;6268988;22;45211;-90
2021/06/12 06:47:49;;;;;;;;;0.00;0.00;;;;;21.19;53.96;101954.38;6242922;22;47803;-90
2021/06/12 06:50:16;;;;;;;;;1.00;1.00;;;;;21.25;53.83;101950.53;6267792;22;45247;-90
2021/06/12 06:52:42;;;;;;;;;1.00;1.00;;;;;21.31;53.55;101950.13;6244681;22;45371;-90
2021/06/12 06:55:09;;;;;;;;;1.67;1.67;;;;;21.35;53.64;101944.53;6269044;22;45505;-90
2021/06/12 06:57:37;;;;;;;;;1.00;1.00;;;;;21.37;53.65;101936.50;6267994;22;48079;-90
2021/06/12 07:00:07;;;;;;;;;1.00;1.00;;;;;21.45;53.46;101952.78;6268210;22;45483;-90
2021/06/12 07:02:33;;;;;;;;;6.00;1.00;;;;;21.53;53.60;101957.59;6268108;22;45384;-90
2021/06/12 07:04:58;;;;;;;;;1.00;1.00;;;;;21.55;53.07;101939.78;6269024;22;45295;-91
2021/06/12 07:07:24;;;;;;;;;1.33;1.00;;;;;21.63;52.77;101950.72;6226171;22;46629;-90
2021/06/12 07:09:51;;;;;;;;;2.33;1.00;;;;;21.71;53.10;101960.03;6213866;22;45392;-90
2021/06/12 07:12:16;;;;;;;;;1.00;1.00;;;;;21.80;53.05;101961.25;6211380;22;45245;-90
2021/06/12 07:14:43;;;;;;;;;2.67;2.67;;;;;21.86;53.03;101963.50;6237922;22;45342;-90
2021/06/12 07:17:09;;;;;;;;;2.00;2.00;;;;;21.88;52.87;101962.44;6237549;22;46775;-90
2021/06/12 07:19:35;;;;;;;;;3.00;2.00;;;;;21.90;52.50;101957.06;6213512;22;45299;-89
2021/06/12 07:22:03;;;;;;;;;1.00;1.00;;;;;21.99;52.81;101960.91;6212228;22;45326;-90
2021/06/12 07:24:32;;;;;;;;;2.33;2.33;;;;;22.05;52.42;101973.75;6238049;22;45478;-90
2021/06/12 07:27:01;;;;;;;;;4.33;1.67;;;;;22.07;52.46;101963.88;6213789;22;45360;-90
2021/06/12 07:29:34;;;;;;;;;2.33;2.33;;;;;22.18;51.87;101972.94;6237715;22;45317;-91
2021/06/12 07:32:00;;;;;;;;;2.33;2.33;;;;;22.21;52.21;101972.75;6237811;22;45216;-90
2021/06/12 07:34:25;;;;;;;;;2.00;2.00;;;;;22.27;52.00;101981.13;6237492;22;45511;-90
2021/06/12 07:36:53;;;;;;;;;0.33;0.33;;;;;22.29;51.61;101987.19;6237932;22;47440;-91
2021/06/12 07:39:29;;;;;;;;;1.00;1.00;;;;;22.31;51.28;101980.94;6237598;22;45406;-91
2021/06/12 07:41:54;;;;;;;;;1.67;1.00;;;;;22.33;51.73;101986.97;6211874;22;45390;-90
2021/06/12 07:44:28;;;;;;;;;2.00;2.00;;;;;22.34;51.63;101992.19;6213926;22;45243;-90
2021/06/12 07:46:54;;;;;;;;;2.00;2.00;;;;;22.41;51.82;102001.41;6236869;22;48135;-90
2021/06/12 07:49:32;;;;;;;;;1.00;1.00;;;;;22.48;50.89;102006.31;6212198;22;45468;-91
2021/06/12 07:51:57;;;;;;;;;1.00;1.00;;;;;22.50;51.50;102004.41;6238088;22;45308;-90
2021/06/12 07:54:26;;;;;;;;;1.00;1.00;;;;;22.57;51.21;102010.19;6237660;22;45167;-90
2021/06/12 07:56:54;;;;;;;;;3.00;1.33;;;;;22.62;50.73;102003.63;6237078;22;46980;-90
2021/06/12 07:59:19;;;;;;;;;0.33;0.33;;;;;22.68;51.15;101997.88;6211661;22;45450;-91
2021/06/12 08:01:47;;;;;;;;;1.00;1.00;;;;;22.76;51.04;102004.47;6212104;22;45301;-91
2021/06/12 08:04:12;;;;;;;;;1.00;1.00;;;;;22.85;50.80;102011.81;6238076;22;45300;-90
2021/06/12 08:06:40;;;;;;;;;1.33;1.33;;;;;22.90;50.75;102009.69;6236406;22;47014;-91
2021/06/12 08:09:05;;;;;;;;;1.67;1.67;;;;;22.88;50.11;102002.78;6212072;22;45516;-90
2021/06/12 08:11:34;;;;;;;;;3.67;1.33;;;;;22.93;50.82;102008.63;6237213;22;45200;-90
2021/06/12 08:14:00;;;;;;;;;1.67;1.67;;;;;22.98;50.78;102008.31;6237976;22;44817;-91
2021/06/12 08:16:25;;;;;;;;;2.00;2.00;;;;;23.03;50.68;102009.69;6237294;22;47356;-92
2021/06/12 08:18:59;;;;;;;;;4.00;2.33;;;;;23.07;50.28;102018.31;6236654;22;45366;-91
2021/06/12 08:21:24;;;;;;;;;2.33;2.33;;;;;23.09;50.17;102008.41;6238286;22;45443;-90
2021/06/12 08:23:50;;;;;;;;;2.00;2.00;;;;;23.17;50.13;102014.06;6215287;22;45397;-90
2021/06/12 08:26:18;;;;;;;;;2.00;2.00;;;;;23.23;50.38;102018.94;6213367;22;47887;-91
2021/06/12 08:28:45;;;;;;;;;2.00;2.00;;;;;23.26;49.88;102017.88;6238493;22;45229;-91
2021/06/12 08:31:11;;;;;;;;;1.00;1.00;;;;;23.38;49.98;102015.34;6215533;22;45300;-90
2021/06/12 08:33:36;;;;;;;;;2.00;2.00;;;;;23.48;49.80;102019.88;6239081;22;45413;-90
2021/06/12 08:36:02;;;;;;;;;1.00;1.00;;;;;23.52;49.48;102009.91;6238863;22;46734;-90
2021/06/12 08:38:28;;;;;;;;;3.00;1.67;;;;;23.57;49.36;102009.56;6212460;22;45779;-93
2021/06/12 08:40:56;;;;;;;;;4.00;3.00;;;;;23.64;49.12;102013.47;6213118;22;45394;-90
2021/06/12 08:43:30;;;;;;;;;4.00;2.00;;;;;23.66;49.11;102018.69;6237860;22;45216;-91
2021/06/12 08:45:56;;;;;;;;;2.00;2.00;;;;;23.73;49.21;102022.59;6238228;22;47343;-90
2021/06/12 08:48:23;;;;;;;;;3.00;3.00;;;;;23.87;49.38;102026.91;6213071;22;45636;-91
2021/06/12 08:50:58;;;;;;;;;2.33;2.33;;;;;23.97;49.25;102035.91;6238683;22;45374;-91
2021/06/12 08:53:28;;;;;;;;;3.67;2.67;;;;;24.08;48.56;102036.97;6239000;22;45268;-91
2021/06/12 08:55:56;;;;;;;;;2.33;2.00;;;;;24.11;48.32;102034.94;6213118;22;46701;-91
2021/06/12 08:58:21;;;;;;;;;2.67;2.67;;;;;24.18;48.42;102034.47;6238284;22;45204;-90
2021/06/12 09:00:48;;;;;;;;;4.00;3.00;;;;;24.25;47.99;102041.88;6214019;22;45170;-91
2021/06/12 09:03:15;;;;;;;;;2.67;2.00;;;;;24.28;47.91;102043.47;6239508;22;45185;-91
2021/06/12 09:05:53;;;;;;;;;2.33;2.00;;;;;24.32;47.58;102046.75;6238111;22;46854;-92
2021/06/12 09:08:30;;;;;;;;;2.67;1.67;;;;;24.34;47.79;102051.00;6238046;22;45863;-90
2021/06/12 09:11:16;;;;;;;;;3.33;2.33;;;;;24.37;46.86;102040.13;6238502;22;45342;-91
2021/06/12 09:13:55;;;;;;;;;5.00;4.00;;;;;24.35;47.33;102044.69;6215222;22;45187;-91
2021/06/12 09:16:38;;;;;;;;;4.00;4.00;;;;;24.32;47.49;102050.25;6237716;22;47290;-91
2021/06/12 09:19:08;;;;;;;;;6.00;5.00;;;;;24.31;47.53;102042.38;6236645;22;45394;-91
2021/06/12 09:21:47;;;;;;;;;7.33;4.33;;;;;24.33;47.48;102040.44;6212655;22;45200;-90
2021/06/12 09:24:36;;;;;;;;;5.67;4.00;;;;;24.40;47.33;102039.88;6212780;22;45424;-90
2021/06/12 09:27:22;;;;;;;;;5.67;5.67;;;;;24.57;47.39;102045.75;6213081;22;46778;-91
2021/06/12 09:29:50;;;;;;;;;7.33;6.33;;;;;24.73;46.91;102049.91;6238481;22;45373;-93
2021/06/12 09:32:30;;;;;;;;;6.33;6.33;;;;;24.87;46.60;102044.44;6237616;22;45429;-92
2021/06/12 09:35:03;;;;;;;;;2.67;2.67;;;;;25.01;46.61;102045.16;6238883;22;45390;-91
2021/06/12 09:37:32;;;;;;;;;6.67;6.67;;;;;25.07;46.59;102042.03;6212939;22;46683;-91
2021/06/12 09:40:22;;;;;;;;;6.00;6.00;;;;;25.02;46.06;102038.88;6237410;22;45752;-92
2021/06/12 09:43:05;;;;;;;;;7.33;6.00;;;;;25.01;46.51;102038.03;6238822;22;45263;-91
2021/06/12 09:45:41;;;;;;;;;8.33;5.67;;;;;25.10;46.52;102033.81;6239264;22;45534;-91
2021/06/12 09:48:22;;;;;;;;;6.33;5.33;;;;;25.18;46.04;102050.03;6237884;22;47194;-91
2021/06/12 09:50:48;;;;;;;;;8.00;6.33;;;;;25.20;45.69;102037.44;6212583;22;45362;-90
2021/06/12 09:53:30;;;;;;;;;;;;;;;;;;;;;
2021/06/12 09:56:09;;;;;;;;;8.33;6.33;;;;;25.42;45.73;102042.91;6213028;22;63015;-91
2021/06/12 09:58:38;;;;;;;;;7.33;6.33;;;;;25.53;45.25;102047.34;6237949;22;46619;-92
2021/06/12 10:01:08;;;;;;;;;6.75;6.75;;;;;25.60;45.21;102051.28;6238539;22;45257;-91
2021/06/12 10:03:35;;;;;;;;;11.25;9.00;;;;;25.63;45.03;102052.84;6237682;22;45340;-91
2021/06/12 10:06:25;;;;;;;;;9.00;9.00;;;;;25.74;44.84;102048.34;6213194;22;45254;-91
2021/06/12 10:08:52;;;;;;;;;8.00;6.00;;;;;25.91;44.96;102043.47;6212321;22;47256;-91
2021/06/12 10:11:35;;;;;;;;;;;;;;;;;;;;;
2021/06/12 10:14:03;;;;;;;;;8.00;7.75;;;;;26.28;44.41;102050.28;6213345;22;68895;-91
2021/06/12 10:16:37;;;;;;;;;7.67;7.67;;;;;26.37;44.66;102043.31;6238907;22;45349;-92
2021/06/12 10:19:05;;;;;;;;;7.75;7.75;;;;;26.56;43.73;102045.31;6213070;22;47091;-92
2021/06/12 10:21:30;;;;;;;;;9.33;7.00;;;;;26.61;43.60;102040.44;6237488;22;45474;-91
2021/06/12 10:23:57;;;;;;;;;9.00;5.25;;;;;26.67;43.34;102042.56;6212986;22;45165;-91
2021/06/12 10:26:22;;;;;;;;;8.00;6.75;;;;;26.76;43.00;102040.09;6212820;22;45431;-91
2021/06/12 10:28:51;;;;;;;;;8.25;8.25;;;;;26.93;42.95;102047.56;6237908;22;46919;-91
2021/06/12 10:31:23;;;;;;;;;9.00;7.00;;;;;27.06;42.40;102041.13;6237912;22;45739;-91
2021/06/12 10:33:54;;;;;;;;;8.67;7.33;;;;;27.21;42.85;102045.16;6212429;22;45447;-91
2021/06/12 10:36:33;;;;;;;;;9.00;8.25;;;;;27.36;42.32;102050.16;6212934;22;45505;-91
2021/06/12 10:39:01;;;;;;;;;9.00;9.00;;;;;27.51;41.73;102049.75;6237637;22;47595;-90
2021/06/12 10:41:36;;;;;;;;;11.67;10.00;;;;;27.56;41.38;102045.72;6237018;22;45387;-91
2021/06/12 10:44:06;;;;;;;;;9.00;7.00;;;;;27.60;41.25;102055.16;6238170;22;45495;-91
2021/06/12 10:46:34;;;;;;;;;9.33;8.00;;;;;27.70;41.74;102057.88;6211981;22;45169;-91
2021/06/12 10:49:10;;;;;;;;;9.00;9.00;;;;;27.74;41.37;102045.09;6237347;22;47250;-92
2021/06/12 10:51:36;;;;;;;;;8.75;8.00;;;;;27.80;41.40;102054.38;6208937;22;45843;-90
2021/06/12 10:54:22;;;;;;;;;9.00;6.75;;;;;27.75;41.15;102057.47;6211192;22;45475;-91
2021/06/12 10:56:52;;;;;;;;;8.50;7.00;;;;;27.76;41.19;102047.63;6234921;22;45317;-91
2021/06/12 10:59:36;;;;;;;;;8.33;8.00;;;;;27.83;40.55;102054.97;6235454;22;46646;-92
2021/06/12 11:02:16;;;;;;;;;5.33;5.33;;;;;27.98;41.25;102067.91;6235171;22;45361;-92
2021/06/12 11:05:06;;;;;;;;;7.75;7.75;;;;;28.15;41.17;102066.41;6211755;22;45462;-90
2021/06/12 11:07:31;;;;;;;;;7.50;6.50;;;;;28.31;40.20;102067.72;6209511;22;45577;-92
2021/06/12 11:10:11;;;;;;;;;18.75;17.00;;;;;28.45;40.46;102066.44;6209413;22;47151;-91
2021/06/12 11:12:56;;;;;;;;;14.25;13.25;;;;;28.45;39.25;102063.78;6209621;22;45403;-91
2021/06/12 11:15:21;;;;;;;;;6.67;6.33;;;;;28.43;39.54;102071.94;6210655;22;45430;-91
2021/06/12 11:18:10;;;;;;;;;6.33;5.33;;;;;28.42;39.09;102062.22;6208743;22;45458;-91
2021/06/12 11:20:45;;;;;;;;;3.00;3.00;;;;;28.42;39.37;102072.94;6210277;22;47859;-92
2021/06/12 11:23:13;;;;;;;;;4.33;4.33;;;;;28.47;39.40;102069.81;6211622;22;45351;-91
2021/06/12 11:25:42;;;;;;;;;3.00;3.00;;;;;28.57;38.98;102062.63;6238080;22;45293;-91
2021/06/12 11:28:21;;;;;;;;;2.33;2.33;;;;;28.71;38.74;102064.00;6211794;22;45348;-91
2021/06/12 11:30:51;;;;;;;;;3.67;3.67;;;;;28.91;39.13;102067.53;6212485;22;47025;-92
2021/06/12 11:33:20;;;;;;;;;2.33;2.33;;;;;28.92;38.76;102066.53;6210253;22;45437;-91
2021/06/12 11:36:04;;;;;;;;;4.00;4.00;;;;;28.86;38.31;102069.75;6234819;22;45724;-92